首页
METAR-TAF:

METAR-TAF

机场 :

贝鲁特, 黎巴嫩

纬度: 33-49N, 经度: 035-29E, 海拔: 29米

当前天气观测

该预报发布于19分钟前的02:00 UTC
风速6节,风向南转南东,在南转南东西之间变化
温度 24°C
湿度 69%
气压 1012 hPa
能见度10公里或以上
少量云层高于2600英尺

METAR: OLBA 230200Z 16006KT 150V260 9999 FEW026 24/18 Q1012 NOSIG

时间: 05:19 (02:19 UTC)

预报

该预报发布于4小时和19分钟前的22:00 UTC
预报有效从23日的 00点(UTC)到 24日的 06点(UTC)
风速10节,风向西南
能见度10公里或以上
少量云层高于2600英尺
成为
从 23日的 09点(UTC)到 23日的 12点(UTC)
风速10节,风向西南
能見度: 8000
散云层高于2600英尺
成为
从 23日的 18点(UTC)到 23日的 21点(UTC)
风速10节,风向

TAF: OLBA 222200Z 2300/2406 22010KT 9999 FEW026 BECMG 2309/2312 23010KT 8000 SCT026 BECMG 2318/2321 18010KT

超过4000个机场的气象观测和天气预报(METAR&TAF报告)。

可查询的气象台以黄色和红色小点在地图上表示。

将鼠标移到小点上方,可查看气象台名称。

然后点击查看天气观测和预报。

如需切换地图:点击带黑十字的绿色按钮放大地图;点击带横线的绿色按钮缩小地图;或者点击绿色箭头查看邻近地区的地图。


METAR-TAF: